Time;durP1;ratioP1;P1;durP2;ratioP2;P2;SDS_P1;SDS_P2;PMS_P1;PMS_P2;Temp;Humidity;BMP_temperature;BMP_pressure;BME280_temperature;BME280_humidity;BME280_pressure;Samples;Min_cycle;Max_cycle;Signal;HPM_P1;HPM_P2
2021/03/17 00:00:22;;;;;;;29.02;14.25;;;;;;;3.49;69.38;98368.24;1738093;82;21917;-40
2021/03/17 00:03:09;;;;;;;27.80;14.38;;;;;;;3.58;69.20;98374.84;1719744;83;21231;-40
2021/03/17 00:05:56;;;;;;;27.27;15.55;;;;;;;3.60;69.12;98369.91;1719609;83;21186;-40
2021/03/17 00:08:43;;;;;;;35.28;15.00;;;;;;;3.58;69.18;98368.14;1719869;83;21152;-40
2021/03/17 00:11:30;;;;;;;32.38;16.12;;;;;;;3.59;69.00;98371.02;1719804;83;21289;-40
2021/03/17 00:14:18;;;;;;;25.90;13.85;;;;;;;3.58;69.18;98362.00;1719732;83;21151;-40
2021/03/17 00:17:05;;;;;;;31.10;15.00;;;;;;;3.63;69.03;98365.20;1719811;83;21175;-40
2021/03/17 00:19:52;;;;;;;33.13;15.50;;;;;;;3.66;68.76;98366.45;1721935;80;21413;-40
2021/03/17 00:22:40;;;;;;;31.45;14.98;;;;;;;3.63;68.85;98363.86;1719827;81;21106;-40
2021/03/17 00:25:34;;;;;;;29.37;15.68;;;;;;;3.61;69.10;98366.12;1719737;83;21357;-40
2021/03/17 00:28:22;;;;;;;31.25;15.58;;;;;;;3.61;68.92;98359.42;1719791;83;21002;-40
2021/03/17 00:31:08;;;;;;;34.83;14.35;;;;;;;3.63;69.02;98363.86;1719870;83;21112;-40
2021/03/17 00:33:55;;;;;;;34.55;15.18;;;;;;;3.72;68.96;98360.52;1719641;83;21434;-40
2021/03/17 00:36:42;;;;;;;27.48;15.58;;;;;;;3.81;68.70;98355.81;1719863;83;21176;-40
2021/03/17 00:39:29;;;;;;;35.17;16.87;;;;;;;3.86;68.60;98362.83;1719862;80;21291;-40
2021/03/17 00:42:15;;;;;;;29.60;17.85;;;;;;;3.89;68.56;98361.59;1701872;84;21617;-40
2021/03/17 00:45:02;;;;;;;34.75;17.02;;;;;;;3.93;68.41;98364.36;1701685;84;21124;-40
2021/03/17 00:47:48;;;;;;;31.37;16.97;;;;;;;3.95;68.46;98362.13;1701726;84;21195;-40
2021/03/17 00:50:17;;;;;;;29.87;18.42;;;;;;;4.01;68.29;98366.70;1693261;83;21616;-40
2021/03/17 00:52:47;;;;;;;28.10;16.97;;;;;;;4.03;68.22;98369.25;1689852;84;23533;-40
2021/03/17 00:55:25;;;;;;;34.27;19.75;;;;;;;4.10;68.10;98362.77;1835387;78;22816;-39
2021/03/17 00:57:57;;;;;;;35.35;20.77;;;;;;;4.09;67.92;98362.53;1796105;79;21020;-39
2021/03/17 01:00:26;;;;;;;33.45;21.97;;;;;;;4.08;67.70;98356.16;1786534;79;22638;-39
2021/03/17 01:02:54;;;;;;;37.73;22.02;;;;;;;4.00;66.99;98360.56;1743795;82;20995;-39
2021/03/17 01:05:22;;;;;;;40.10;23.35;;;;;;;3.92;67.34;98362.23;1693153;84;21028;-39
2021/03/17 01:07:50;;;;;;;42.43;23.70;;;;;;;3.90;67.53;98357.80;1751983;81;21031;-39
2021/03/17 01:10:22;;;;;;;44.75;23.57;;;;;;;3.90;67.46;98355.11;1712813;83;21108;-39
2021/03/17 01:12:50;;;;;;;39.90;19.42;;;;;;;3.87;67.44;98354.43;1743849;82;22092;-39
2021/03/17 01:15:21;;;;;;;33.63;20.70;;;;;;;3.84;67.50;98356.46;1712870;83;21080;-39
2021/03/17 01:17:48;;;;;;;37.15;21.05;;;;;;;3.89;67.28;98356.22;1744141;82;21043;-39
2021/03/17 01:20:18;;;;;;;43.25;22.50;;;;;;;3.91;67.05;98351.88;1730988;82;21201;-39
2021/03/17 01:22:46;;;;;;;37.98;21.95;;;;;;;3.88;67.01;98345.83;1769700;81;21165;-39
2021/03/17 01:25:33;;;;;;;38.00;22.35;;;;;;;3.84;67.13;98354.34;1743118;82;22266;-39
2021/03/17 01:28:03;;;;;;;40.40;22.30;;;;;;;3.80;67.17;98342.17;1742805;82;21063;-39
2021/03/17 01:30:38;;;;;;;45.95;21.97;;;;;;;3.83;67.29;98349.53;1769677;81;21154;-39
2021/03/17 01:33:07;;;;;;;44.67;22.58;;;;;;;3.85;67.39;98345.97;1742899;82;21131;-39
2021/03/17 01:35:36;;;;;;;39.00;21.87;;;;;;;3.90;67.42;98345.73;1743206;82;21593;-39
2021/03/17 01:38:04;;;;;;;43.80;21.23;;;;;;;3.97;67.37;98354.52;1769543;81;22685;-39
2021/03/17 01:40:35;;;;;;;37.63;21.00;;;;;;;4.07;67.25;98357.28;1743098;82;21162;-39
2021/03/17 01:43:03;;;;;;;49.70;24.77;;;;;;;4.15;67.10;98355.03;1742473;80;21039;-39
2021/03/17 01:45:31;;;;;;;47.40;26.15;;;;;;;4.19;66.91;98355.91;1769532;81;21177;-39
2021/03/17 01:47:59;;;;;;;50.03;27.37;;;;;;;4.22;66.85;98361.36;1742923;82;21147;-39
2021/03/17 01:50:31;;;;;;;49.75;27.82;;;;;;;4.26;66.83;98359.55;1742919;82;21207;-39
2021/03/17 01:53:10;;;;;;;52.48;28.70;;;;;;;4.27;66.67;98355.75;1742939;82;21656;-39
2021/03/17 01:55:38;;;;;;;54.27;30.62;;;;;;;4.28;66.46;98357.88;1759096;81;21546;-39
2021/03/17 01:58:08;;;;;;;53.70;30.00;;;;;;;4.24;66.06;98349.74;1737569;82;21170;-39
2021/03/17 02:00:37;;;;;;;54.38;29.02;;;;;;;4.16;66.04;98351.23;1796559;79;21111;-39
2021/03/17 02:03:05;;;;;;;60.17;30.20;;;;;;;4.10;66.35;98348.02;1796845;79;21425;-39
2021/03/17 02:05:37;;;;;;;51.28;26.57;;;;;;;4.11;66.21;98343.43;1796231;79;21167;-39
2021/03/17 02:08:13;;;;;;;48.13;26.97;;;;;;;4.15;65.99;98347.77;1796064;79;21661;-39
2021/03/17 02:10:48;;;;;;;41.55;25.97;;;;;;;4.22;65.74;98341.24;1835399;78;22881;-39
2021/03/17 02:13:50;;;;;;;48.87;26.40;;;;;;;4.16;65.39;98343.19;1807690;79;21012;-39
2021/03/17 02:16:24;;;;;;;43.45;26.20;;;;;;;4.10;65.25;98343.20;1807796;79;21317;-39
2021/03/17 02:19:07;;;;;;;41.30;24.47;;;;;;;4.00;65.24;98343.69;1806825;79;21773;-39
2021/03/17 02:22:26;;;;;;;42.30;23.62;;;;;;;3.92;65.45;98343.47;1775776;80;21024;-39
2021/03/17 02:25:18;;;;;;;39.58;23.50;;;;;;;3.88;65.46;98341.80;1775867;80;21613;-38
2021/03/17 02:28:28;;;;;;;34.13;20.17;;;;;;;3.75;65.78;98339.73;1784455;79;20917;-39
2021/03/17 02:31:22;;;;;;;32.00;17.37;;;;;;;3.65;66.16;98339.41;1775740;80;21035;-40
2021/03/17 02:34:06;;;;;;;28.95;17.70;;;;;;;3.69;66.25;98345.09;1776434;79;21618;-40
2021/03/17 02:36:56;;;;;;;34.30;17.50;;;;;;;3.79;66.21;98335.25;1835413;78;22405;-39
2021/03/17 02:39:38;;;;;;;30.85;16.12;;;;;;;3.77;66.17;98348.78;1807568;79;21004;-39
2021/03/17 02:42:23;;;;;;;28.85;16.35;;;;;;;3.73;65.91;98339.28;1807188;79;21261;-39
2021/03/17 02:45:00;;;;;;;29.87;15.48;;;;;;;3.70;66.15;98336.50;1807683;79;21020;-39
2021/03/17 02:47:27;;;;;;;25.70;14.63;;;;;;;3.69;66.18;98332.25;1807710;79;21016;-39
2021/03/17 02:49:55;;;;;;;30.62;14.98;;;;;;;3.65;66.07;98336.73;1793050;79;21023;-39
2021/03/17 02:52:25;;;;;;;26.20;14.58;;;;;;;3.60;66.19;98333.73;1746399;80;20961;-39
2021/03/17 02:54:52;;;;;;;26.20;14.50;;;;;;;3.61;66.42;98328.59;1775716;80;21241;-39
2021/03/17 02:57:21;;;;;;;23.75;13.68;;;;;;;3.55;66.36;98312.52;1775865;80;21320;-39
2021/03/17 02:59:54;;;;;;;28.92;15.75;;;;;;;3.74;66.18;98329.34;1775932;79;21299;-39
2021/03/17 03:02:22;;;;;;;25.32;15.38;;;;;;;3.73;66.09;98331.23;1775931;80;21158;-39
2021/03/17 03:04:51;;;;;;;28.92;15.83;;;;;;;3.74;66.36;98335.48;1775860;80;21562;-39
2021/03/17 03:07:21;;;;;;;31.80;16.25;;;;;;;3.37;66.46;98274.50;1775970;80;21438;-39
2021/03/17 03:09:50;;;;;;;26.50;15.45;;;;;;;3.75;66.47;98335.71;1775891;80;21644;-39
2021/03/17 03:12:18;;;;;;;31.55;15.72;;;;;;;3.73;66.31;98334.47;1746476;80;21142;-39
2021/03/17 03:14:46;;;;;;;23.95;14.55;;;;;;;3.67;66.50;98333.95;1775719;80;21180;-39
2021/03/17 03:17:15;;;;;;;30.00;14.25;;;;;;;3.68;66.77;98336.83;1775902;80;21174;-39
2021/03/17 03:19:51;;;;;;;24.85;13.45;;;;;;;3.38;66.37;98277.97;1776016;79;21369;-39
2021/03/17 03:22:21;;;;;;;23.30;14.25;;;;;;;3.76;66.32;98335.94;1775950;80;21644;-39
2021/03/17 03:24:49;;;;;;;20.90;10.60;;;;;;;3.77;66.33;98332.70;1775975;79;21153;-39
2021/03/17 03:27:17;;;;;;;26.70;14.45;;;;;;;3.76;66.31;98333.25;1775941;80;21134;-39
2021/03/17 03:29:46;;;;;;;30.30;13.85;;;;;;;3.79;66.17;98333.13;1775754;80;21616;-39
2021/03/17 03:32:15;;;;;;;33.23;13.73;;;;;;;3.76;65.99;98337.84;1776199;80;22278;-39
2021/03/17 03:34:44;;;;;;;27.45;13.75;;;;;;;3.64;65.92;98331.93;1773526;79;21201;-39
2021/03/17 03:37:13;;;;;;;24.47;11.93;;;;;;;3.55;66.17;98337.98;1739035;82;21875;-39
2021/03/17 03:39:41;;;;;;;19.30;11.70;;;;;;;3.55;66.31;98343.34;1761081;80;21158;-39
2021/03/17 03:42:09;;;;;;;24.98;12.55;;;;;;;3.57;66.27;98340.33;1776190;80;21365;-39
2021/03/17 03:44:37;;;;;;;28.17;12.50;;;;;;;3.58;66.22;98341.34;1776310;80;22124;-39
2021/03/17 03:47:06;;;;;;;21.90;12.25;;;;;;;3.56;66.29;98339.55;1775465;80;21162;-39
2021/03/17 03:49:35;;;;;;;23.92;12.70;;;;;;;3.51;66.43;98338.44;1763349;80;21162;-39
2021/03/17 03:52:14;;;;;;;25.05;12.68;;;;;;;3.47;66.51;98338.89;1708852;84;21167;-39
2021/03/17 03:54:54;;;;;;;28.87;13.70;;;;;;;3.45;66.55;98331.19;1744840;81;21570;-39
2021/03/17 03:57:26;;;;;;;26.85;12.73;;;;;;;3.43;66.73;98338.02;1708918;83;21372;-39
2021/03/17 03:59:58;;;;;;;26.07;12.23;;;;;;;3.43;66.88;98331.31;1708793;84;21095;-39
2021/03/17 04:02:27;;;;;;;27.07;12.60;;;;;;;3.48;67.02;98334.55;1744822;81;21128;-39
2021/03/17 04:04:56;;;;;;;21.45;12.15;;;;;;;3.47;66.60;98328.96;1709034;83;21657;-39
2021/03/17 04:07:24;;;;;;;23.35;12.03;;;;;;;3.45;66.70;98326.38;1708905;84;21131;-39
2021/03/17 04:09:53;;;;;;;27.70;13.53;;;;;;;3.39;66.19;98330.41;1708933;84;21440;-39
2021/03/17 04:12:22;;;;;;;22.32;12.65;;;;;;;3.36;66.58;98331.09;1708977;84;21146;-39
2021/03/17 04:14:53;;;;;;;25.30;13.58;;;;;;;3.34;66.52;98332.00;1744708;81;21190;-39
2021/03/17 04:17:46;;;;;;;20.20;12.88;;;;;;;3.31;66.50;98327.30;1709078;84;21194;-39
2021/03/17 04:20:18;;;;;;;25.60;12.50;;;;;;;3.29;66.53;98328.20;1708984;84;21182;-39
2021/03/17 04:22:45;;;;;;;;;;;;;;;3.33;66.44;98327.75;1711384;84;21265;-39
2021/03/17 04:25:15;;;;;;;26.23;13.15;;;;;;;3.36;66.31;98333.77;1684254;85;20279;-39
2021/03/17 04:27:45;;;;;;;24.10;14.13;;;;;;;3.24;66.73;98327.09;1708811;84;21167;-39
2021/03/17 04:30:15;;;;;;;31.12;15.13;;;;;;;3.26;66.90;98333.66;1708932;84;21637;-39
2021/03/17 04:32:45;;;;;;;29.15;15.18;;;;;;;3.29;66.84;98330.89;1708873;83;21182;-39
2021/03/17 04:35:14;;;;;;;26.87;14.13;;;;;;;3.27;66.88;98331.77;1711316;82;21310;-39
2021/03/17 04:37:44;;;;;;;18.15;10.08;;;;;;;3.28;67.04;98327.98;1771033;81;21605;-39
2021/03/17 04:40:14;;;;;;;22.02;12.93;;;;;;;3.33;66.90;98330.43;1768287;79;21186;-39
2021/03/17 04:42:44;;;;;;;23.22;12.37;;;;;;;3.40;66.80;98331.97;1802558;79;21159;-39
2021/03/17 04:45:14;;;;;;;24.02;14.33;;;;;;;3.44;66.70;98334.19;1802680;79;21159;-39
2021/03/17 04:47:45;;;;;;;29.80;14.07;;;;;;;3.44;66.61;98334.98;1802678;79;21455;-39
2021/03/17 04:50:16;;;;;;;22.85;13.80;;;;;;;3.44;66.46;98329.62;1787401;79;21040;-39
2021/03/17 04:52:57;;;;;;;23.50;13.43;;;;;;;3.42;66.62;98328.41;1770673;81;21154;-39
2021/03/17 04:55:41;;;;;;;25.92;14.20;;;;;;;3.42;66.81;98329.19;1770817;81;21138;-39
2021/03/17 04:58:29;;;;;;;24.40;12.58;;;;;;;3.41;66.84;98324.95;1808039;78;22715;-39
2021/03/17 05:01:28;;;;;;;22.20;13.23;;;;;;;3.47;66.89;98322.82;1784851;78;28631;-39
2021/03/17 05:04:15;;;;;;;22.48;13.30;;;;;;;3.87;65.49;98324.94;1772257;81;21936;-39
2021/03/17 05:07:03;;;;;;;23.30;12.58;;;;;;;3.98;64.66;98323.13;1772282;81;21374;-39
2021/03/17 05:09:44;;;;;;;23.62;13.72;;;;;;;3.77;65.02;98314.72;1721622;81;21054;-39
2021/03/17 05:12:20;;;;;;;25.25;13.38;;;;;;;3.62;65.11;98319.45;1773847;78;21067;-39
2021/03/17 05:14:58;;;;;;;26.25;13.35;;;;;;;3.56;65.38;98318.11;1781395;80;21025;-39
2021/03/17 05:17:40;;;;;;;24.63;13.70;;;;;;;3.51;65.51;98308.97;1773241;80;21029;-39
2021/03/17 05:20:35;;;;;;;30.20;13.22;;;;;;;3.45;65.52;98317.00;1783643;79;21386;-39
2021/03/17 05:23:32;;;;;;;22.48;13.50;;;;;;;3.45;65.58;98316.45;1673366;80;22068;-39
2021/03/17 05:26:13;;;;;;;24.63;12.80;;;;;;;3.44;65.60;98317.56;1761338;80;21056;-39
2021/03/17 05:28:44;;;;;;;24.32;13.08;;;;;;;3.42;65.60;98306.42;1741719;80;21179;-39
2021/03/17 05:31:27;;;;;;;27.48;13.72;;;;;;;3.40;65.64;98315.89;1778734;80;21135;-39
2021/03/17 05:34:05;;;;;;;24.92;13.18;;;;;;;3.38;65.68;98322.17;1783774;80;21248;-40
2021/03/17 05:36:51;;;;;;;25.65;14.33;;;;;;;3.41;66.07;98315.57;1840565;78;22376;-39
2021/03/17 05:39:19;;;;;;;24.60;12.68;;;;;;;3.40;65.90;98325.27;1804880;79;20957;-39
2021/03/17 05:41:49;;;;;;;19.17;11.53;;;;;;;3.42;66.00;98323.05;1772447;81;21310;-39
2021/03/17 05:44:17;;;;;;;26.17;12.68;;;;;;;3.49;65.91;98314.66;1772268;81;21039;-39
2021/03/17 05:46:45;;;;;;;24.12;12.73;;;;;;;3.57;65.80;98321.02;1772162;81;21557;-39
2021/03/17 05:49:12;;;;;;;23.85;13.53;;;;;;;3.59;65.79;98321.44;1776420;79;20957;-39
2021/03/17 05:51:40;;;;;;;29.25;13.95;;;;;;;3.63;65.79;98329.61;1815644;79;20975;-39
2021/03/17 05:54:09;;;;;;;20.90;12.05;;;;;;;3.64;65.78;98327.13;1815700;79;21348;-39
2021/03/17 05:56:37;;;;;;;22.87;12.30;;;;;;;3.65;65.74;98335.39;1815562;79;21035;-39
2021/03/17 05:59:06;;;;;;;21.12;12.23;;;;;;;3.68;65.68;98332.05;1815749;79;21023;-39
2021/03/17 06:01:33;;;;;;;22.93;12.73;;;;;;;3.71;65.33;98335.39;1815624;79;21126;-39
2021/03/17 06:04:03;;;;;;;23.15;12.63;;;;;;;3.70;64.98;98331.92;1815767;79;21149;-39
2021/03/17 06:06:30;;;;;;;25.52;11.25;;;;;;;3.69;64.90;98330.91;1815595;79;21154;-39
2021/03/17 06:09:00;;;;;;;21.30;11.50;;;;;;;3.71;65.00;98334.05;1815830;79;21617;-39
2021/03/17 06:11:28;;;;;;;23.20;12.58;;;;;;;3.78;64.64;98340.38;1815971;79;21130;-39
2021/03/17 06:13:56;;;;;;;21.20;11.93;;;;;;;3.79;64.41;98338.48;1815638;79;21399;-39
2021/03/17 06:16:24;;;;;;;23.77;12.47;;;;;;;3.76;64.14;98334.59;1815658;79;21150;-39
2021/03/17 06:18:57;;;;;;;27.40;13.20;;;;;;;3.77;64.18;98338.84;1814385;79;21408;-40
2021/03/17 06:21:25;;;;;;;21.95;12.13;;;;;;;3.76;64.37;98333.25;1783667;80;21168;-39
2021/03/17 06:23:53;;;;;;;26.93;12.63;;;;;;;3.71;64.50;98333.49;1783489;80;20972;-40
2021/03/17 06:26:24;;;;;;;21.77;12.43;;;;;;;3.67;64.47;98341.99;1783589;80;21150;-39
2021/03/17 06:28:51;;;;;;;24.82;11.28;;;;;;;3.66;64.64;98335.62;1783436;80;21138;-39
2021/03/17 06:31:20;;;;;;;21.07;11.95;;;;;;;3.66;64.66;98328.36;1782193;79;21193;-40
2021/03/17 06:33:52;;;;;;;27.70;11.80;;;;;;;3.74;64.85;98330.13;1792196;78;21166;-40
2021/03/17 06:36:23;;;;;;;17.82;10.93;;;;;;;3.76;64.82;98339.17;1776271;80;21142;-40
2021/03/17 06:39:06;;;;;;;21.05;11.93;;;;;;;3.74;64.77;98336.04;1775910;79;21040;-40
2021/03/17 06:41:49;;;;;;;24.00;11.83;;;;;;;3.75;64.56;98337.61;1804538;79;21135;-40
2021/03/17 06:44:29;;;;;;;25.23;11.48;;;;;;;3.76;64.50;98341.30;1804592;79;21592;-40
2021/03/17 06:47:20;;;;;;;21.27;11.65;;;;;;;3.75;64.63;98333.03;1804274;79;21441;-39
2021/03/17 06:49:52;;;;;;;21.87;10.68;;;;;;;3.75;64.64;98338.39;1804091;79;21614;-40
2021/03/17 06:52:34;;;;;;;19.02;10.75;;;;;;;3.76;64.50;98337.28;1803978;79;21143;-40
2021/03/17 06:55:22;;;;;;;23.02;10.58;;;;;;;3.82;64.42;98337.27;1772238;81;21158;-40
2021/03/17 06:57:52;;;;;;;20.57;11.08;;;;;;;3.85;64.58;98337.92;1772106;80;21254;-40
2021/03/17 07:00:36;;;;;;;20.02;11.22;;;;;;;3.87;64.37;98339.69;1784566;79;21629;-40
2021/03/17 07:03:14;;;;;;;23.45;10.45;;;;;;;3.91;64.43;98340.59;1804213;79;21542;-40
2021/03/17 07:05:45;;;;;;;26.00;11.38;;;;;;;3.94;64.06;98329.17;1803900;79;21597;-40
2021/03/17 07:08:27;;;;;;;22.20;11.03;;;;;;;3.97;63.81;98334.98;1804021;79;20977;-39
2021/03/17 07:11:07;;;;;;;17.75;11.40;;;;;;;3.96;63.60;98326.72;1808010;78;22707;-39
2021/03/17 07:13:37;;;;;;;19.23;11.10;;;;;;;3.85;63.78;98331.22;1783792;80;20991;-39
2021/03/17 07:16:06;;;;;;;22.40;10.82;;;;;;;3.84;64.14;98333.67;1748988;82;21035;-39
2021/03/17 07:18:35;;;;;;;18.07;10.25;;;;;;;3.90;64.18;98335.56;1748716;82;21457;-39
2021/03/17 07:21:07;;;;;;;19.92;10.45;;;;;;;4.02;63.86;98338.77;1701310;81;20987;-39
2021/03/17 07:23:40;;;;;;;19.70;10.15;;;;;;;4.09;63.00;98337.61;1748755;82;21012;-39
2021/03/17 07:26:26;;;;;;;22.70;10.50;;;;;;;4.09;62.92;98340.30;1739864;82;21444;-39
2021/03/17 07:29:05;;;;;;;19.17;10.15;;;;;;;4.11;63.13;98335.38;1754138;80;22130;-39
2021/03/17 07:31:40;;;;;;;22.32;10.98;;;;;;;4.11;63.09;98336.72;1749177;82;21582;-39
2021/03/17 07:34:20;;;;;;;29.07;11.95;;;;;;;4.12;62.90;98335.58;1747186;82;21063;-39
2021/03/17 07:37:04;;;;;;;28.23;12.13;;;;;;;4.18;63.12;98336.34;1828160;78;22527;-39
2021/03/17 07:39:36;;;;;;;21.75;10.55;;;;;;;4.17;62.89;98333.44;1744846;80;21817;-40
2021/03/17 07:42:06;;;;;;;23.67;11.35;;;;;;;4.16;63.01;98337.83;1779854;80;22284;-39
2021/03/17 07:44:37;;;;;;;25.35;11.70;;;;;;;4.16;62.62;98328.44;1779804;80;20979;-39
2021/03/17 07:47:08;;;;;;;21.12;9.95;;;;;;;4.19;62.88;98327.73;1779749;80;21031;-39
2021/03/17 07:49:44;;;;;;;23.20;10.55;;;;;;;4.29;63.17;98333.95;1778146;80;21053;-39
2021/03/17 07:52:27;;;;;;;18.85;9.90;;;;;;;4.40;62.24;98332.34;1776068;80;21135;-39
2021/03/17 07:55:07;;;;;;;19.27;10.98;;;;;;;4.42;62.00;98327.95;1712077;83;21195;-39
2021/03/17 07:57:35;;;;;;;18.98;11.30;;;;;;;4.41;61.89;98332.55;1715242;83;20993;-39
2021/03/17 08:00:06;;;;;;;18.92;11.12;;;;;;;4.39;62.07;98336.14;1719050;82;21032;-39
2021/03/17 08:02:37;;;;;;;18.55;10.65;;;;;;;4.40;62.15;98329.66;1732415;82;21601;-39
2021/03/17 08:05:09;;;;;;;17.57;10.20;;;;;;;4.44;62.06;98333.22;1739859;81;21098;-39
2021/03/17 08:07:39;;;;;;;18.42;9.45;;;;;;;4.44;61.87;98327.84;1779545;80;20997;-39
2021/03/17 08:10:11;;;;;;;19.87;10.45;;;;;;;4.42;62.15;98334.67;1754298;81;21210;-39
2021/03/17 08:12:41;;;;;;;20.68;10.38;;;;;;;4.44;62.04;98335.11;1754581;81;21607;-39
2021/03/17 08:15:14;;;;;;;19.82;10.95;;;;;;;4.48;62.02;98329.27;1737038;81;21166;-39
2021/03/17 08:17:43;;;;;;;24.37;11.33;;;;;;;4.46;61.79;98326.92;1763457;81;21110;-40
2021/03/17 08:20:28;;;;;;;18.27;9.88;;;;;;;4.45;61.35;98320.02;1726846;81;21055;-39
2021/03/17 08:22:57;;;;;;;24.23;10.40;;;;;;;4.47;61.44;98318.31;1755059;81;21193;-39
2021/03/17 08:25:42;;;;;;;19.73;9.83;;;;;;;4.45;61.58;98314.66;1755444;81;21158;-39
2021/03/17 08:28:21;;;;;;;23.85;11.57;;;;;;;4.46;61.69;98318.88;1743769;81;21211;-39
2021/03/17 08:30:53;;;;;;;20.05;10.45;;;;;;;4.44;61.40;98319.80;1725249;83;21680;-39
2021/03/17 08:33:36;;;;;;;16.85;10.55;;;;;;;4.43;61.23;98311.52;1725213;83;21206;-39
2021/03/17 08:36:15;;;;;;;22.80;11.12;;;;;;;4.55;60.59;98310.69;1717128;82;21171;-40
2021/03/17 08:38:57;;;;;;;23.07;11.75;;;;;;;4.58;60.58;98316.70;1715046;82;21119;-39
2021/03/17 08:41:42;;;;;;;24.15;11.10;;;;;;;4.63;61.05;98315.87;1740628;82;21155;-39
2021/03/17 08:44:21;;;;;;;19.77;10.80;;;;;;;4.73;61.08;98312.69;1740574;82;21155;-39
2021/03/17 08:46:50;;;;;;;18.42;11.63;;;;;;;4.85;60.82;98320.42;1740358;82;22280;-39
2021/03/17 08:49:33;;;;;;;25.43;12.53;;;;;;;4.89;60.27;98315.94;1796974;79;21629;-39
2021/03/17 08:52:15;;;;;;;21.97;11.35;;;;;;;4.91;60.15;98317.70;1796795;79;21582;-39
2021/03/17 08:54:51;;;;;;;21.90;11.45;;;;;;;4.91;60.51;98323.06;1796638;79;21604;-39
2021/03/17 08:57:19;;;;;;;21.50;12.47;;;;;;;4.92;59.93;98319.27;1796833;79;21131;-39
2021/03/17 08:59:59;;;;;;;21.75;12.53;;;;;;;4.94;60.40;98316.43;1796404;79;21186;-39
2021/03/17 09:02:30;;;;;;;24.12;11.48;;;;;;;4.99;60.12;98318.86;1796608;79;21147;-39
2021/03/17 09:05:00;;;;;;;22.75;12.07;;;;;;;5.04;59.75;98316.47;1796642;79;21155;-40
2021/03/17 09:07:31;;;;;;;26.07;12.37;;;;;;;5.09;59.52;98317.55;1796842;79;21211;-39
2021/03/17 09:10:09;;;;;;;23.50;12.30;;;;;;;5.15;59.73;98320.20;1794477;79;21044;-39
2021/03/17 09:12:43;;;;;;;24.50;12.50;;;;;;;5.16;59.74;98330.60;1796484;79;21398;-39
2021/03/17 09:15:15;;;;;;;21.75;11.63;;;;;;;5.18;59.60;98332.95;1796656;79;21099;-39
2021/03/17 09:17:56;;;;;;;24.60;12.78;;;;;;;5.18;59.39;98331.02;1796553;79;21157;-39
2021/03/17 09:22:44;;;;;;;23.27;12.23;;;;;;;5.21;58.98;98339.74;1841977;76;22783;-39
2021/03/17 09:25:20;;;;;;;19.05;12.37;;;;;;;5.11;59.53;98335.45;1745383;82;21036;-39
2021/03/17 09:27:55;;;;;;;22.05;12.25;;;;;;;5.09;59.02;98327.73;1761884;81;21264;-39
2021/03/17 09:30:25;;;;;;;21.80;12.43;;;;;;;5.12;58.78;98337.02;1749775;82;21639;-40
2021/03/17 09:33:05;;;;;;;22.22;11.48;;;;;;;5.12;59.35;98341.05;1731487;82;21063;-39
2021/03/17 09:35:33;;;;;;;20.97;12.00;;;;;;;5.12;59.16;98341.05;1749659;82;21575;-40
2021/03/17 09:38:10;;;;;;;21.48;11.83;;;;;;;5.15;58.98;98337.09;1731520;82;21007;-40
2021/03/17 09:40:46;;;;;;;21.25;11.53;;;;;;;5.17;58.69;98339.45;1749533;82;23515;-39
2021/03/17 09:43:48;;;;;;;23.80;11.97;;;;;;;4.88;58.53;98291.55;1731409;82;21054;-39
2021/03/17 09:46:33;;;;;;;20.40;12.10;;;;;;;5.14;58.42;98341.47;1731490;82;20955;-39
2021/03/17 09:49:08;;;;;;;22.20;12.63;;;;;;;5.08;58.68;98344.22;1789087;79;21024;-40
2021/03/17 09:51:56;;;;;;;22.50;11.63;;;;;;;5.09;58.77;98340.38;1854782;76;22672;-39
2021/03/17 09:54:27;;;;;;;22.58;11.60;;;;;;;5.05;58.82;98342.21;1829221;78;21257;-39
2021/03/17 09:57:02;;;;;;;22.82;12.60;;;;;;;5.05;58.74;98349.70;1829079;78;21193;-39
2021/03/17 10:02:27;;;;;;;24.57;12.45;;;;;;;5.17;58.32;98346.16;1809002;78;22909;-39
2021/03/17 10:04:56;;;;;;;26.15;12.68;;;;;;;5.21;58.50;98347.80;1786939;80;21106;-39
2021/03/17 10:07:30;;;;;;;16.75;11.40;;;;;;;5.28;57.85;98347.77;1753051;80;21275;-40
2021/03/17 10:09:59;;;;;;;20.55;12.07;;;;;;;5.33;58.05;98343.44;1786962;80;21613;-40
2021/03/17 10:12:30;;;;;;;17.57;11.68;;;;;;;5.40;58.26;98339.58;1786934;80;21015;-40
2021/03/17 10:15:09;;;;;;;26.45;11.50;;;;;;;5.46;57.71;98338.19;1786967;80;21202;-40
2021/03/17 10:17:37;;;;;;;20.12;11.75;;;;;;;5.53;57.28;98336.42;1786779;80;20992;-41
2021/03/17 10:20:14;;;;;;;21.25;11.05;;;;;;;5.53;56.89;98337.77;1785204;79;21281;-40
2021/03/17 10:22:44;;;;;;;18.87;10.70;;;;;;;5.53;57.02;98337.77;1783524;80;21051;-40
2021/03/17 10:25:18;;;;;;;22.32;10.90;;;;;;;5.44;57.12;98324.31;1783797;80;21561;-40
2021/03/17 10:27:49;;;;;;;26.62;10.35;;;;;;;5.54;57.01;98332.61;1783454;80;21146;-40
2021/03/17 10:30:27;;;;;;;20.48;10.20;;;;;;;5.57;57.27;98329.77;1805774;79;21115;-40
2021/03/17 10:32:56;;;;;;;16.32;9.70;;;;;;;5.63;57.52;98327.03;1806651;79;21645;-40
2021/03/17 10:35:24;;;;;;;16.73;10.55;;;;;;;5.67;57.04;98327.32;1806578;79;21170;-41
2021/03/17 10:37:54;;;;;;;17.77;10.08;;;;;;;5.69;56.71;98331.80;1806717;78;21055;-40
2021/03/17 10:40:24;;;;;;;19.75;10.35;;;;;;;5.75;56.77;98320.77;1814579;78;21418;-40
2021/03/17 10:43:13;;;;;;;16.95;9.70;;;;;;;5.81;56.72;98323.39;1815919;79;22302;-41
2021/03/17 10:45:53;;;;;;;21.10;9.43;;;;;;;5.86;56.66;98325.21;1748995;82;21374;-40
2021/03/17 10:48:24;;;;;;;15.90;8.93;;;;;;;5.90;56.95;98322.65;1779719;80;21209;-40
2021/03/17 10:50:56;;;;;;;23.50;9.53;;;;;;;5.92;56.43;98325.19;1744078;82;21207;-41
2021/03/17 10:53:29;;;;;;;16.50;9.20;;;;;;;5.93;56.31;98327.31;1779704;80;21155;-40
2021/03/17 10:56:00;;;;;;;17.00;9.68;;;;;;;5.91;56.40;98329.56;1748748;82;21117;-40
2021/03/17 10:58:31;;;;;;;14.25;8.73;;;;;;;5.92;56.36;98331.13;1779716;80;22203;-40
2021/03/17 11:01:01;;;;;;;18.05;9.33;;;;;;;5.94;56.55;98326.19;1739324;82;21213;-41
2021/03/17 11:06:18;;;;;;;21.15;9.35;;;;;;;5.99;56.25;98327.25;1808444;78;22304;-39
2021/03/17 11:09:06;;;;;;;19.73;9.20;;;;;;;5.97;56.55;98325.47;1783517;80;20991;-39
2021/03/17 11:11:51;;;;;;;18.20;8.60;;;;;;;5.96;56.05;98320.65;1783752;80;21050;-39
2021/03/17 11:14:35;;;;;;;19.82;9.00;;;;;;;5.96;56.63;98326.59;1783491;80;20968;-40
2021/03/17 11:17:06;;;;;;;19.67;8.43;;;;;;;5.95;56.72;98328.53;1783657;80;21160;-39
2021/03/17 11:19:36;;;;;;;19.75;8.50;;;;;;;5.91;56.54;98326.88;1794398;79;21035;-39
2021/03/17 11:22:04;;;;;;;15.53;8.53;;;;;;;5.90;56.63;98322.65;1815877;79;20995;-39
2021/03/17 11:24:32;;;;;;;17.00;8.45;;;;;;;5.87;56.71;98321.42;1815570;79;23496;-39
2021/03/17 11:27:01;;;;;;;21.10;8.30;;;;;;;5.84;56.49;98318.64;1815708;79;21011;-39
2021/03/17 11:29:30;;;;;;;17.17;8.48;;;;;;;5.83;56.77;98319.77;1815705;79;21008;-39
2021/03/17 11:32:09;;;;;;;12.13;5.70;;;;;;;5.84;56.98;98328.06;1815705;78;21150;-39
2021/03/17 11:34:38;;;;;;;23.35;7.72;;;;;;;5.85;56.47;98318.30;1815771;79;21178;-40
2021/03/17 11:37:06;;;;;;;16.55;8.10;;;;;;;5.88;56.79;98316.83;1748782;82;21192;-39
2021/03/17 11:39:37;;;;;;;15.10;7.17;;;;;;;5.93;56.68;98320.59;1779549;80;21150;-40
2021/03/17 11:42:05;;;;;;;18.12;7.92;;;;;;;5.98;56.48;98320.30;1748641;82;21187;-39
2021/03/17 11:44:33;;;;;;;16.67;7.60;;;;;;;5.98;56.31;98318.96;1779579;80;21119;-39
2021/03/17 11:47:01;;;;;;;17.80;7.40;;;;;;;6.01;56.42;98325.75;1738030;82;21175;-39
2021/03/17 11:49:29;;;;;;;12.10;7.53;;;;;;;6.02;55.70;98315.77;1742868;82;21213;-40
2021/03/17 11:51:57;;;;;;;17.42;8.05;;;;;;;6.01;56.22;98326.31;1748705;82;21089;-39
2021/03/17 11:54:26;;;;;;;15.23;7.53;;;;;;;5.97;56.00;98324.91;1748967;82;21022;-39
2021/03/17 11:56:54;;;;;;;17.30;7.90;;;;;;;5.92;56.35;98326.53;1748721;82;21089;-40
2021/03/17 11:59:22;;;;;;;16.00;7.35;;;;;;;5.89;56.48;98325.13;1748913;82;21192;-39
2021/03/17 12:01:50;;;;;;;17.48;7.00;;;;;;;5.90;56.64;98328.81;1748772;82;21253;-39
2021/03/17 12:04:18;;;;;;;12.25;6.65;;;;;;;5.90;56.68;98322.09;1719248;83;21211;-40
2021/03/17 12:06:46;;;;;;;17.45;7.50;;;;;;;5.92;56.57;98322.50;1757045;81;21584;-39
2021/03/17 12:09:15;;;;;;;16.62;6.95;;;;;;;5.92;56.53;98321.71;1726883;83;21175;-39